sensor_id;sensor_type;location;lat;lon;timestamp;temperature;humidity
10388;DHT22;5240;51.128;4.566;2023-08-07T00:01:00;13.50;99.90
10388;DHT22;5240;51.128;4.566;2023-08-07T00:03:27;13.40;99.90
10388;DHT22;5240;51.128;4.566;2023-08-07T00:05:54;13.30;99.90
10388;DHT22;5240;51.128;4.566;2023-08-07T00:08:21;13.20;99.90
10388;DHT22;5240;51.128;4.566;2023-08-07T00:10:50;13.20;99.90
10388;DHT22;5240;51.128;4.566;2023-08-07T00:13:17;13.10;99.90
10388;DHT22;5240;51.128;4.566;2023-08-07T00:15:44;13.10;99.90
10388;DHT22;5240;51.128;4.566;2023-08-07T00:18:11;13.00;99.90
10388;DHT22;5240;51.128;4.566;2023-08-07T00:20:38;12.90;99.90
10388;DHT22;5240;51.128;4.566;2023-08-07T00:23:05;12.90;99.90
10388;DHT22;5240;51.128;4.566;2023-08-07T00:25:32;12.80;99.90
10388;DHT22;5240;51.128;4.566;2023-08-07T00:28:01;12.80;99.90
10388;DHT22;5240;51.128;4.566;2023-08-07T00:30:28;12.70;99.90
10388;DHT22;5240;51.128;4.566;2023-08-07T00:32:55;12.70;99.90
10388;DHT22;5240;51.128;4.566;2023-08-07T00:35:22;12.70;99.90
10388;DHT22;5240;51.128;4.566;2023-08-07T00:37:49;12.70;99.90
10388;DHT22;5240;51.128;4.566;2023-08-07T00:40:17;12.70;99.90
10388;DHT22;5240;51.128;4.566;2023-08-07T00:42:44;12.70;99.90
10388;DHT22;5240;51.128;4.566;2023-08-07T00:45:12;12.80;99.90
10388;DHT22;5240;51.128;4.566;2023-08-07T00:47:39;12.80;99.90
10388;DHT22;5240;51.128;4.566;2023-08-07T00:50:07;12.90;99.90
10388;DHT22;5240;51.128;4.566;2023-08-07T00:52:34;13.00;99.90
10388;DHT22;5240;51.128;4.566;2023-08-07T00:55:02;13.10;99.90
10388;DHT22;5240;51.128;4.566;2023-08-07T00:57:29;13.10;99.90
10388;DHT22;5240;51.128;4.566;2023-08-07T00:59:58;13.00;99.90
10388;DHT22;5240;51.128;4.566;2023-08-07T01:02:27;13.00;99.90
10388;DHT22;5240;51.128;4.566;2023-08-07T01:04:54;13.00;99.90
10388;DHT22;5240;51.128;4.566;2023-08-07T01:07:21;13.00;99.90
10388;DHT22;5240;51.128;4.566;2023-08-07T01:09:48;12.90;99.90
10388;DHT22;5240;51.128;4.566;2023-08-07T01:12:18;12.80;99.90
10388;DHT22;5240;51.128;4.566;2023-08-07T01:14:51;12.80;99.90
10388;DHT22;5240;51.128;4.566;2023-08-07T01:17:21;12.80;99.90
10388;DHT22;5240;51.128;4.566;2023-08-07T01:19:51;12.80;99.90
10388;DHT22;5240;51.128;4.566;2023-08-07T01:22:20;12.70;99.90
10388;DHT22;5240;51.128;4.566;2023-08-07T01:24:48;12.70;99.90
10388;DHT22;5240;51.128;4.566;2023-08-07T01:27:29;12.70;99.90
10388;DHT22;5240;51.128;4.566;2023-08-07T01:30:02;12.60;99.90
10388;DHT22;5240;51.128;4.566;2023-08-07T01:32:35;12.60;99.90
10388;DHT22;5240;51.128;4.566;2023-08-07T01:35:06;12.60;99.90
10388;DHT22;5240;51.128;4.566;2023-08-07T01:37:38;12.50;99.90
10388;DHT22;5240;51.128;4.566;2023-08-07T01:40:08;12.50;99.90
10388;DHT22;5240;51.128;4.566;2023-08-07T01:42:35;12.50;99.90
10388;DHT22;5240;51.128;4.566;2023-08-07T01:45:04;12.50;99.90
10388;DHT22;5240;51.128;4.566;2023-08-07T01:47:31;12.50;99.90
10388;DHT22;5240;51.128;4.566;2023-08-07T01:49:58;12.50;99.90
10388;DHT22;5240;51.128;4.566;2023-08-07T01:52:26;12.50;99.90
10388;DHT22;5240;51.128;4.566;2023-08-07T01:54:54;12.60;99.90
10388;DHT22;5240;51.128;4.566;2023-08-07T01:57:21;12.60;99.90
10388;DHT22;5240;51.128;4.566;2023-08-07T01:59:48;12.70;99.90
10388;DHT22;5240;51.128;4.566;2023-08-07T02:02:16;12.70;99.90
10388;DHT22;5240;51.128;4.566;2023-08-07T02:04:43;12.70;99.90
10388;DHT22;5240;51.128;4.566;2023-08-07T02:07:10;12.70;99.90
10388;DHT22;5240;51.128;4.566;2023-08-07T02:09:37;12.70;99.90
10388;DHT22;5240;51.128;4.566;2023-08-07T02:12:06;12.60;99.90
10388;DHT22;5240;51.128;4.566;2023-08-07T02:14:33;12.60;99.90
10388;DHT22;5240;51.128;4.566;2023-08-07T02:17:00;12.60;99.90
10388;DHT22;5240;51.128;4.566;2023-08-07T02:19:27;12.60;99.90
10388;DHT22;5240;51.128;4.566;2023-08-07T02:21:54;12.50;99.90
10388;DHT22;5240;51.128;4.566;2023-08-07T02:24:21;12.60;99.90
10388;DHT22;5240;51.128;4.566;2023-08-07T02:26:48;12.50;99.90
10388;DHT22;5240;51.128;4.566;2023-08-07T02:29:17;12.50;99.90
10388;DHT22;5240;51.128;4.566;2023-08-07T02:31:44;12.50;99.90
10388;DHT22;5240;51.128;4.566;2023-08-07T02:34:11;12.50;99.90
10388;DHT22;5240;51.128;4.566;2023-08-07T02:36:39;12.40;99.90
10388;DHT22;5240;51.128;4.566;2023-08-07T02:39:06;12.40;99.90
10388;DHT22;5240;51.128;4.566;2023-08-07T02:41:33;12.40;99.90
10388;DHT22;5240;51.128;4.566;2023-08-07T02:44:00;12.40;99.90
10388;DHT22;5240;51.128;4.566;2023-08-07T02:46:29;12.30;99.90
10388;DHT22;5240;51.128;4.566;2023-08-07T02:48:56;12.30;99.90
10388;DHT22;5240;51.128;4.566;2023-08-07T02:51:23;12.30;99.90
10388;DHT22;5240;51.128;4.566;2023-08-07T02:53:50;12.30;99.90
10388;DHT22;5240;51.128;4.566;2023-08-07T02:56:17;12.30;99.90
10388;DHT22;5240;51.128;4.566;2023-08-07T02:58:44;12.20;99.90
10388;DHT22;5240;51.128;4.566;2023-08-07T03:01:11;12.20;99.90
10388;DHT22;5240;51.128;4.566;2023-08-07T03:03:39;12.20;99.90
10388;DHT22;5240;51.128;4.566;2023-08-07T03:06:06;12.20;99.90
10388;DHT22;5240;51.128;4.566;2023-08-07T03:08:33;12.20;99.90
10388;DHT22;5240;51.128;4.566;2023-08-07T03:11:02;12.20;99.90
10388;DHT22;5240;51.128;4.566;2023-08-07T03:13:29;12.30;99.90
10388;DHT22;5240;51.128;4.566;2023-08-07T03:15:59;12.30;99.90
10388;DHT22;5240;51.128;4.566;2023-08-07T03:18:27;12.40;99.90
10388;DHT22;5240;51.128;4.566;2023-08-07T03:20:56;12.50;99.90
10388;DHT22;5240;51.128;4.566;2023-08-07T03:23:23;12.50;99.90
10388;DHT22;5240;51.128;4.566;2023-08-07T03:25:51;12.60;99.90
10388;DHT22;5240;51.128;4.566;2023-08-07T03:28:18;12.60;99.90
10388;DHT22;5240;51.128;4.566;2023-08-07T03:30:45;12.70;99.90
10388;DHT22;5240;51.128;4.566;2023-08-07T03:33:12;12.70;99.90
10388;DHT22;5240;51.128;4.566;2023-08-07T03:35:39;12.70;99.90
10388;DHT22;5240;51.128;4.566;2023-08-07T03:38:08;12.80;99.90
10388;DHT22;5240;51.128;4.566;2023-08-07T03:40:35;12.80;99.90
10388;DHT22;5240;51.128;4.566;2023-08-07T03:43:02;12.80;99.90
10388;DHT22;5240;51.128;4.566;2023-08-07T03:45:29;12.80;99.90
10388;DHT22;5240;51.128;4.566;2023-08-07T03:47:56;12.80;99.90
10388;DHT22;5240;51.128;4.566;2023-08-07T03:50:23;12.80;99.90
10388;DHT22;5240;51.128;4.566;2023-08-07T03:52:50;12.80;99.90
10388;DHT22;5240;51.128;4.566;2023-08-07T03:55:18;12.80;99.90
10388;DHT22;5240;51.128;4.566;2023-08-07T03:57:45;12.80;99.90
10388;DHT22;5240;51.128;4.566;2023-08-07T04:00:14;12.90;99.90
10388;DHT22;5240;51.128;4.566;2023-08-07T04:02:41;12.90;99.90
10388;DHT22;5240;51.128;4.566;2023-08-07T04:05:08;12.90;99.90
10388;DHT22;5240;51.128;4.566;2023-08-07T04:07:36;13.00;99.90
10388;DHT22;5240;51.128;4.566;2023-08-07T04:10:03;12.90;99.90
10388;DHT22;5240;51.128;4.566;2023-08-07T04:12:32;12.90;99.90
10388;DHT22;5240;51.128;4.566;2023-08-07T04:14:59;12.90;99.90
10388;DHT22;5240;51.128;4.566;2023-08-07T04:17:26;12.90;99.90
10388;DHT22;5240;51.128;4.566;2023-08-07T04:19:53;12.90;99.90
10388;DHT22;5240;51.128;4.566;2023-08-07T04:22:20;12.90;99.90
10388;DHT22;5240;51.128;4.566;2023-08-07T04:24:47;13.00;99.90
10388;DHT22;5240;51.128;4.566;2023-08-07T04:27:14;13.00;99.90
10388;DHT22;5240;51.128;4.566;2023-08-07T04:29:43;13.00;99.90
10388;DHT22;5240;51.128;4.566;2023-08-07T04:32:10;12.90;99.90
10388;DHT22;5240;51.128;4.566;2023-08-07T04:34:37;12.90;99.90
10388;DHT22;5240;51.128;4.566;2023-08-07T04:37:04;12.90;99.90
10388;DHT22;5240;51.128;4.566;2023-08-07T04:39:32;12.90;99.90
10388;DHT22;5240;51.128;4.566;2023-08-07T04:41:59;12.90;99.90
10388;DHT22;5240;51.128;4.566;2023-08-07T04:44:26;12.90;99.90
10388;DHT22;5240;51.128;4.566;2023-08-07T04:46:54;12.90;99.90
10388;DHT22;5240;51.128;4.566;2023-08-07T04:49:21;12.80;99.90
10388;DHT22;5240;51.128;4.566;2023-08-07T04:51:48;12.80;99.90
10388;DHT22;5240;51.128;4.566;2023-08-07T04:54:15;12.70;99.90
10388;DHT22;5240;51.128;4.566;2023-08-07T04:56:42;12.60;99.90
10388;DHT22;5240;51.128;4.566;2023-08-07T04:59:10;12.60;99.90
10388;DHT22;5240;51.128;4.566;2023-08-07T05:01:37;12.50;99.90
10388;DHT22;5240;51.128;4.566;2023-08-07T05:04:06;12.50;99.90
10388;DHT22;5240;51.128;4.566;2023-08-07T05:06:33;12.50;99.90
10388;DHT22;5240;51.128;4.566;2023-08-07T05:09:00;12.50;99.90
10388;DHT22;5240;51.128;4.566;2023-08-07T05:11:27;12.40;99.90
10388;DHT22;5240;51.128;4.566;2023-08-07T05:13:54;12.50;99.90
10388;DHT22;5240;51.128;4.566;2023-08-07T05:16:21;12.40;99.90
10388;DHT22;5240;51.128;4.566;2023-08-07T05:18:49;12.40;99.90
10388;DHT22;5240;51.128;4.566;2023-08-07T05:21:17;12.40;99.90
10388;DHT22;5240;51.128;4.566;2023-08-07T05:23:44;12.40;99.90
10388;DHT22;5240;51.128;4.566;2023-08-07T05:26:13;12.40;99.90
10388;DHT22;5240;51.128;4.566;2023-08-07T05:28:40;12.40;99.90
10388;DHT22;5240;51.128;4.566;2023-08-07T05:31:07;12.40;99.90
10388;DHT22;5240;51.128;4.566;2023-08-07T05:33:36;12.40;99.90
10388;DHT22;5240;51.128;4.566;2023-08-07T05:36:03;12.40;99.90
10388;DHT22;5240;51.128;4.566;2023-08-07T05:38:33;12.50;99.90
10388;DHT22;5240;51.128;4.566;2023-08-07T05:41:00;12.60;99.90
10388;DHT22;5240;51.128;4.566;2023-08-07T05:43:27;12.60;99.90
10388;DHT22;5240;51.128;4.566;2023-08-07T05:45:54;12.60;99.90
10388;DHT22;5240;51.128;4.566;2023-08-07T05:48:21;12.70;99.90
10388;DHT22;5240;51.128;4.566;2023-08-07T05:50:48;12.70;99.90
10388;DHT22;5240;51.128;4.566;2023-08-07T05:53:15;12.80;99.90
10388;DHT22;5240;51.128;4.566;2023-08-07T05:55:43;12.90;99.90
10388;DHT22;5240;51.128;4.566;2023-08-07T05:58:11;12.90;99.90
10388;DHT22;5240;51.128;4.566;2023-08-07T06:00:38;12.90;99.90
10388;DHT22;5240;51.128;4.566;2023-08-07T06:03:05;12.90;99.90
10388;DHT22;5240;51.128;4.566;2023-08-07T06:05:34;13.10;99.90
10388;DHT22;5240;51.128;4.566;2023-08-07T06:08:02;13.20;99.90
10388;DHT22;5240;51.128;4.566;2023-08-07T06:10:29;13.30;99.90
10388;DHT22;5240;51.128;4.566;2023-08-07T06:12:58;13.40;99.90
10388;DHT22;5240;51.128;4.566;2023-08-07T06:15:25;13.50;99.90
10388;DHT22;5240;51.128;4.566;2023-08-07T06:17:53;13.60;99.90
10388;DHT22;5240;51.128;4.566;2023-08-07T06:20:20;13.70;99.90
10388;DHT22;5240;51.128;4.566;2023-08-07T06:22:47;13.90;99.90
10388;DHT22;5240;51.128;4.566;2023-08-07T06:25:14;14.00;99.90
10388;DHT22;5240;51.128;4.566;2023-08-07T06:27:41;14.00;99.90
10388;DHT22;5240;51.128;4.566;2023-08-07T06:30:11;14.20;99.90
10388;DHT22;5240;51.128;4.566;2023-08-07T06:32:39;14.30;99.90
10388;DHT22;5240;51.128;4.566;2023-08-07T06:35:07;14.30;99.90
10388;DHT22;5240;51.128;4.566;2023-08-07T06:37:35;14.40;99.90
10388;DHT22;5240;51.128;4.566;2023-08-07T06:40:03;14.50;99.90
10388;DHT22;5240;51.128;4.566;2023-08-07T06:42:33;14.50;99.90
10388;DHT22;5240;51.128;4.566;2023-08-07T06:45:00;14.60;99.90
10388;DHT22;5240;51.128;4.566;2023-08-07T06:47:30;14.60;99.90
10388;DHT22;5240;51.128;4.566;2023-08-07T06:50:11;14.70;99.90
10388;DHT22;5240;51.128;4.566;2023-08-07T06:52:39;14.80;99.90
10388;DHT22;5240;51.128;4.566;2023-08-07T06:55:25;14.80;99.90
10388;DHT22;5240;51.128;4.566;2023-08-07T06:58:01;14.90;99.90
10388;DHT22;5240;51.128;4.566;2023-08-07T07:00:43;15.00;99.90
10388;DHT22;5240;51.128;4.566;2023-08-07T07:03:27;15.10;99.90
10388;DHT22;5240;51.128;4.566;2023-08-07T07:05:55;15.10;99.90
10388;DHT22;5240;51.128;4.566;2023-08-07T07:11:04;15.40;99.90
10388;DHT22;5240;51.128;4.566;2023-08-07T07:13:31;15.60;99.90
10388;DHT22;5240;51.128;4.566;2023-08-07T07:15:58;15.80;99.90
10388;DHT22;5240;51.128;4.566;2023-08-07T07:18:26;15.90;99.90
10388;DHT22;5240;51.128;4.566;2023-08-07T07:20:57;16.10;99.90
10388;DHT22;5240;51.128;4.566;2023-08-07T07:23:26;16.30;99.90
10388;DHT22;5240;51.128;4.566;2023-08-07T07:25:56;16.40;99.90
10388;DHT22;5240;51.128;4.566;2023-08-07T07:28:23;16.40;99.90
10388;DHT22;5240;51.128;4.566;2023-08-07T07:30:50;16.20;99.90
10388;DHT22;5240;51.128;4.566;2023-08-07T07:33:18;16.10;99.90
10388;DHT22;5240;51.128;4.566;2023-08-07T07:35:46;16.00;99.90
10388;DHT22;5240;51.128;4.566;2023-08-07T07:38:13;15.90;99.90
10388;DHT22;5240;51.128;4.566;2023-08-07T07:40:41;15.90;99.90
10388;DHT22;5240;51.128;4.566;2023-08-07T07:43:08;15.90;99.90
10388;DHT22;5240;51.128;4.566;2023-08-07T07:45:35;16.00;99.90
10388;DHT22;5240;51.128;4.566;2023-08-07T07:48:02;16.10;99.90
10388;DHT22;5240;51.128;4.566;2023-08-07T07:50:29;16.10;99.90
10388;DHT22;5240;51.128;4.566;2023-08-07T07:52:58;16.30;99.90
10388;DHT22;5240;51.128;4.566;2023-08-07T07:55:25;16.50;99.90
10388;DHT22;5240;51.128;4.566;2023-08-07T07:57:53;16.70;99.90
10388;DHT22;5240;51.128;4.566;2023-08-07T08:00:20;16.80;99.90
10388;DHT22;5240;51.128;4.566;2023-08-07T08:02:49;16.90;99.90
10388;DHT22;5240;51.128;4.566;2023-08-07T08:05:16;16.80;99.90
10388;DHT22;5240;51.128;4.566;2023-08-07T08:07:43;16.90;99.90
10388;DHT22;5240;51.128;4.566;2023-08-07T08:10:12;16.80;99.90
10388;DHT22;5240;51.128;4.566;2023-08-07T08:12:39;16.80;99.90
10388;DHT22;5240;51.128;4.566;2023-08-07T08:15:07;16.70;99.90
10388;DHT22;5240;51.128;4.566;2023-08-07T08:17:34;16.80;99.90
10388;DHT22;5240;51.128;4.566;2023-08-07T08:20:01;16.80;99.90
10388;DHT22;5240;51.128;4.566;2023-08-07T08:22:28;16.80;99.90
10388;DHT22;5240;51.128;4.566;2023-08-07T08:24:55;16.70;99.90
10388;DHT22;5240;51.128;4.566;2023-08-07T08:27:23;16.80;99.90
10388;DHT22;5240;51.128;4.566;2023-08-07T08:29:51;16.90;99.90
10388;DHT22;5240;51.128;4.566;2023-08-07T08:32:17;16.90;99.90
10388;DHT22;5240;51.128;4.566;2023-08-07T08:34:45;16.90;99.90
10388;DHT22;5240;51.128;4.566;2023-08-07T08:37:15;17.00;99.90
10388;DHT22;5240;51.128;4.566;2023-08-07T08:39:42;17.10;99.90
10388;DHT22;5240;51.128;4.566;2023-08-07T08:42:11;17.30;99.90
10388;DHT22;5240;51.128;4.566;2023-08-07T08:44:40;17.50;99.90
10388;DHT22;5240;51.128;4.566;2023-08-07T08:47:09;17.70;99.90
10388;DHT22;5240;51.128;4.566;2023-08-07T08:49:43;17.70;99.90
10388;DHT22;5240;51.128;4.566;2023-08-07T08:52:11;17.60;99.90
10388;DHT22;5240;51.128;4.566;2023-08-07T08:54:39;17.60;99.90
10388;DHT22;5240;51.128;4.566;2023-08-07T08:57:06;17.80;99.90
10388;DHT22;5240;51.128;4.566;2023-08-07T08:59:33;18.20;99.90
10388;DHT22;5240;51.128;4.566;2023-08-07T09:02:02;19.00;99.90
10388;DHT22;5240;51.128;4.566;2023-08-07T09:04:30;19.60;99.90
10388;DHT22;5240;51.128;4.566;2023-08-07T09:06:57;20.00;99.90
10388;DHT22;5240;51.128;4.566;2023-08-07T09:09:25;19.70;99.90
10388;DHT22;5240;51.128;4.566;2023-08-07T09:11:52;19.50;99.90
10388;DHT22;5240;51.128;4.566;2023-08-07T09:14:22;19.80;99.90
10388;DHT22;5240;51.128;4.566;2023-08-07T09:16:51;20.20;99.90
10388;DHT22;5240;51.128;4.566;2023-08-07T09:19:19;20.50;99.90
10388;DHT22;5240;51.128;4.566;2023-08-07T09:21:46;20.80;99.90
10388;DHT22;5240;51.128;4.566;2023-08-07T09:24:13;20.90;99.90
10388;DHT22;5240;51.128;4.566;2023-08-07T09:26:44;20.50;99.90
10388;DHT22;5240;51.128;4.566;2023-08-07T09:29:12;19.90;99.90
10388;DHT22;5240;51.128;4.566;2023-08-07T09:31:43;19.90;99.90
10388;DHT22;5240;51.128;4.566;2023-08-07T09:34:11;20.00;99.90
10388;DHT22;5240;51.128;4.566;2023-08-07T09:36:41;20.40;99.90
10388;DHT22;5240;51.128;4.566;2023-08-07T09:39:08;21.00;99.90
10388;DHT22;5240;51.128;4.566;2023-08-07T09:41:37;21.30;99.90
10388;DHT22;5240;51.128;4.566;2023-08-07T09:44:07;21.80;99.90
10388;DHT22;5240;51.128;4.566;2023-08-07T09:46:41;22.30;99.90
10388;DHT22;5240;51.128;4.566;2023-08-07T09:49:08;22.00;99.90
10388;DHT22;5240;51.128;4.566;2023-08-07T09:51:43;22.00;99.90
10388;DHT22;5240;51.128;4.566;2023-08-07T09:54:10;22.20;99.90
10388;DHT22;5240;51.128;4.566;2023-08-07T09:56:37;22.20;99.90
10388;DHT22;5240;51.128;4.566;2023-08-07T09:59:05;22.00;99.90
10388;DHT22;5240;51.128;4.566;2023-08-07T10:01:32;21.40;99.90
10388;DHT22;5240;51.128;4.566;2023-08-07T10:04:00;20.70;99.90
10388;DHT22;5240;51.128;4.566;2023-08-07T10:06:28;20.70;99.90
10388;DHT22;5240;51.128;4.566;2023-08-07T10:08:56;20.70;99.90
10388;DHT22;5240;51.128;4.566;2023-08-07T10:11:24;20.90;99.90
10388;DHT22;5240;51.128;4.566;2023-08-07T10:13:52;20.80;99.90
10388;DHT22;5240;51.128;4.566;2023-08-07T10:16:19;21.40;99.90
10388;DHT22;5240;51.128;4.566;2023-08-07T10:18:46;21.40;99.90
10388;DHT22;5240;51.128;4.566;2023-08-07T10:21:13;20.90;99.90
10388;DHT22;5240;51.128;4.566;2023-08-07T10:23:41;20.70;99.90
10388;DHT22;5240;51.128;4.566;2023-08-07T10:26:11;21.00;99.90
10388;DHT22;5240;51.128;4.566;2023-08-07T10:28:40;21.80;99.90
10388;DHT22;5240;51.128;4.566;2023-08-07T10:31:09;22.60;99.90
10388;DHT22;5240;51.128;4.566;2023-08-07T10:33:37;23.20;99.90
10388;DHT22;5240;51.128;4.566;2023-08-07T10:36:08;23.70;99.90
10388;DHT22;5240;51.128;4.566;2023-08-07T10:38:36;23.40;99.90
10388;DHT22;5240;51.128;4.566;2023-08-07T10:41:07;22.70;99.90
10388;DHT22;5240;51.128;4.566;2023-08-07T10:43:40;22.70;99.90
10388;DHT22;5240;51.128;4.566;2023-08-07T10:46:09;23.00;99.90
10388;DHT22;5240;51.128;4.566;2023-08-07T10:48:41;23.40;99.90
10388;DHT22;5240;51.128;4.566;2023-08-07T10:51:12;23.40;99.90
10388;DHT22;5240;51.128;4.566;2023-08-07T10:53:41;22.80;99.90
10388;DHT22;5240;51.128;4.566;2023-08-07T10:56:10;22.40;99.90
10388;DHT22;5240;51.128;4.566;2023-08-07T10:58:40;22.50;99.90
10388;DHT22;5240;51.128;4.566;2023-08-07T11:01:21;22.10;99.90
10388;DHT22;5240;51.128;4.566;2023-08-07T11:03:52;22.10;99.90
10388;DHT22;5240;51.128;4.566;2023-08-07T11:06:22;22.90;99.90
10388;DHT22;5240;51.128;4.566;2023-08-07T11:08:51;22.70;99.90
10388;DHT22;5240;51.128;4.566;2023-08-07T11:11:19;22.70;99.90
10388;DHT22;5240;51.128;4.566;2023-08-07T11:13:47;22.80;99.90
10388;DHT22;5240;51.128;4.566;2023-08-07T11:16:14;22.70;99.90
10388;DHT22;5240;51.128;4.566;2023-08-07T11:18:42;22.50;99.90
10388;DHT22;5240;51.128;4.566;2023-08-07T11:21:10;23.30;99.90
10388;DHT22;5240;51.128;4.566;2023-08-07T11:23:37;24.60;99.90
10388;DHT22;5240;51.128;4.566;2023-08-07T11:26:04;24.00;99.90
10388;DHT22;5240;51.128;4.566;2023-08-07T11:28:31;23.10;99.90
10388;DHT22;5240;51.128;4.566;2023-08-07T11:31:00;22.20;99.90
10388;DHT22;5240;51.128;4.566;2023-08-07T11:33:28;22.30;99.90
10388;DHT22;5240;51.128;4.566;2023-08-07T11:35:56;23.20;99.90
10388;DHT22;5240;51.128;4.566;2023-08-07T11:38:31;24.30;99.90
10388;DHT22;5240;51.128;4.566;2023-08-07T11:40:59;24.10;99.90
10388;DHT22;5240;51.128;4.566;2023-08-07T11:43:30;23.50;99.90
10388;DHT22;5240;51.128;4.566;2023-08-07T11:46:00;23.00;99.90
10388;DHT22;5240;51.128;4.566;2023-08-07T11:48:28;23.50;99.90
10388;DHT22;5240;51.128;4.566;2023-08-07T11:50:56;24.60;99.90
10388;DHT22;5240;51.128;4.566;2023-08-07T11:53:25;25.10;99.90
10388;DHT22;5240;51.128;4.566;2023-08-07T11:55:52;24.20;99.90
10388;DHT22;5240;51.128;4.566;2023-08-07T11:58:21;23.20;99.90
10388;DHT22;5240;51.128;4.566;2023-08-07T12:00:49;22.50;99.90
10388;DHT22;5240;51.128;4.566;2023-08-07T12:03:27;22.00;99.90
10388;DHT22;5240;51.128;4.566;2023-08-07T12:05:56;21.50;99.90
10388;DHT22;5240;51.128;4.566;2023-08-07T12:08:24;21.30;99.90
10388;DHT22;5240;51.128;4.566;2023-08-07T12:10:51;21.00;99.90
10388;DHT22;5240;51.128;4.566;2023-08-07T12:13:26;20.90;99.90
10388;DHT22;5240;51.128;4.566;2023-08-07T12:15:54;20.60;99.90
10388;DHT22;5240;51.128;4.566;2023-08-07T12:18:22;21.50;99.90
10388;DHT22;5240;51.128;4.566;2023-08-07T12:20:51;22.20;99.90
10388;DHT22;5240;51.128;4.566;2023-08-07T12:23:20;22.10;99.90
10388;DHT22;5240;51.128;4.566;2023-08-07T12:25:48;21.80;99.90
10388;DHT22;5240;51.128;4.566;2023-08-07T12:28:15;21.20;99.90
10388;DHT22;5240;51.128;4.566;2023-08-07T12:30:44;21.60;99.90
10388;DHT22;5240;51.128;4.566;2023-08-07T12:33:13;22.70;99.90
10388;DHT22;5240;51.128;4.566;2023-08-07T12:35:40;23.30;99.90
10388;DHT22;5240;51.128;4.566;2023-08-07T12:38:14;23.00;99.90
10388;DHT22;5240;51.128;4.566;2023-08-07T12:40:41;22.20;99.90
10388;DHT22;5240;51.128;4.566;2023-08-07T12:43:08;21.50;99.90
10388;DHT22;5240;51.128;4.566;2023-08-07T12:45:36;21.50;99.90
10388;DHT22;5240;51.128;4.566;2023-08-07T12:48:03;22.20;99.90
10388;DHT22;5240;51.128;4.566;2023-08-07T12:50:30;22.00;99.90
10388;DHT22;5240;51.128;4.566;2023-08-07T12:52:58;22.50;99.90
10388;DHT22;5240;51.128;4.566;2023-08-07T12:55:26;23.90;99.90
10388;DHT22;5240;51.128;4.566;2023-08-07T12:57:55;25.10;99.90
10388;DHT22;5240;51.128;4.566;2023-08-07T13:00:22;25.80;99.90
10388;DHT22;5240;51.128;4.566;2023-08-07T13:02:51;26.30;99.90
10388;DHT22;5240;51.128;4.566;2023-08-07T13:05:20;26.20;99.90
10388;DHT22;5240;51.128;4.566;2023-08-07T13:07:47;26.50;99.90
10388;DHT22;5240;51.128;4.566;2023-08-07T13:10:16;26.90;99.90
10388;DHT22;5240;51.128;4.566;2023-08-07T13:12:47;27.00;99.90
10388;DHT22;5240;51.128;4.566;2023-08-07T13:15:16;26.50;99.90
10388;DHT22;5240;51.128;4.566;2023-08-07T13:17:43;25.40;99.90
10388;DHT22;5240;51.128;4.566;2023-08-07T13:20:11;24.30;99.90
10388;DHT22;5240;51.128;4.566;2023-08-07T13:22:39;23.40;99.90
10388;DHT22;5240;51.128;4.566;2023-08-07T13:25:08;23.10;99.90
10388;DHT22;5240;51.128;4.566;2023-08-07T13:27:36;23.60;99.90
10388;DHT22;5240;51.128;4.566;2023-08-07T13:30:06;23.70;99.90
10388;DHT22;5240;51.128;4.566;2023-08-07T13:32:34;23.80;99.90
10388;DHT22;5240;51.128;4.566;2023-08-07T13:35:01;25.20;99.90
10388;DHT22;5240;51.128;4.566;2023-08-07T13:37:28;26.20;99.90
10388;DHT22;5240;51.128;4.566;2023-08-07T13:39:55;26.60;99.90
10388;DHT22;5240;51.128;4.566;2023-08-07T13:42:24;26.10;99.90
10388;DHT22;5240;51.128;4.566;2023-08-07T13:44:51;25.50;99.90
10388;DHT22;5240;51.128;4.566;2023-08-07T13:47:20;24.50;99.90
10388;DHT22;5240;51.128;4.566;2023-08-07T13:49:47;23.40;99.90
10388;DHT22;5240;51.128;4.566;2023-08-07T13:52:14;23.00;99.90
10388;DHT22;5240;51.128;4.566;2023-08-07T13:54:41;23.50;99.90
10388;DHT22;5240;51.128;4.566;2023-08-07T13:57:08;24.80;99.90
10388;DHT22;5240;51.128;4.566;2023-08-07T13:59:35;25.20;99.90
10388;DHT22;5240;51.128;4.566;2023-08-07T14:02:02;25.90;99.90
10388;DHT22;5240;51.128;4.566;2023-08-07T14:04:31;27.00;99.90
10388;DHT22;5240;51.128;4.566;2023-08-07T14:06:58;26.50;99.90
10388;DHT22;5240;51.128;4.566;2023-08-07T14:09:25;25.20;99.90
10388;DHT22;5240;51.128;4.566;2023-08-07T14:11:52;24.30;99.90
10388;DHT22;5240;51.128;4.566;2023-08-07T14:14:21;23.30;99.90
10388;DHT22;5240;51.128;4.566;2023-08-07T14:16:48;22.70;99.90
10388;DHT22;5240;51.128;4.566;2023-08-07T14:19:15;23.40;99.90
10388;DHT22;5240;51.128;4.566;2023-08-07T14:21:43;24.90;99.90
10388;DHT22;5240;51.128;4.566;2023-08-07T14:24:10;26.40;99.90
10388;DHT22;5240;51.128;4.566;2023-08-07T14:26:37;26.70;99.90
10388;DHT22;5240;51.128;4.566;2023-08-07T14:29:04;26.30;99.90
10388;DHT22;5240;51.128;4.566;2023-08-07T14:31:31;24.80;99.90
10388;DHT22;5240;51.128;4.566;2023-08-07T14:33:58;23.70;99.90
10388;DHT22;5240;51.128;4.566;2023-08-07T14:36:25;23.20;99.90
10388;DHT22;5240;51.128;4.566;2023-08-07T14:38:54;23.50;99.90
10388;DHT22;5240;51.128;4.566;2023-08-07T14:41:21;24.70;99.90
10388;DHT22;5240;51.128;4.566;2023-08-07T14:43:47;25.50;99.90
10388;DHT22;5240;51.128;4.566;2023-08-07T14:46:16;25.10;99.90
10388;DHT22;5240;51.128;4.566;2023-08-07T14:48:44;24.50;99.90
10388;DHT22;5240;51.128;4.566;2023-08-07T14:51:13;25.00;99.90
10388;DHT22;5240;51.128;4.566;2023-08-07T14:53:40;26.00;99.90
10388;DHT22;5240;51.128;4.566;2023-08-07T14:56:08;26.60;99.90
10388;DHT22;5240;51.128;4.566;2023-08-07T14:58:35;27.10;99.90
10388;DHT22;5240;51.128;4.566;2023-08-07T15:01:02;27.30;99.90
10388;DHT22;5240;51.128;4.566;2023-08-07T15:03:29;25.90;99.90
10388;DHT22;5240;51.128;4.566;2023-08-07T15:05:56;24.50;99.90
10388;DHT22;5240;51.128;4.566;2023-08-07T15:08:23;24.20;99.90
10388;DHT22;5240;51.128;4.566;2023-08-07T15:10:51;25.00;99.90
10388;DHT22;5240;51.128;4.566;2023-08-07T15:13:20;25.80;99.90
10388;DHT22;5240;51.128;4.566;2023-08-07T15:15:47;26.50;99.90
10388;DHT22;5240;51.128;4.566;2023-08-07T15:18:14;26.80;99.90
10388;DHT22;5240;51.128;4.566;2023-08-07T15:20:41;27.30;99.90
10388;DHT22;5240;51.128;4.566;2023-08-07T15:23:08;26.80;99.90
10388;DHT22;5240;51.128;4.566;2023-08-07T15:25:37;26.00;99.90
10388;DHT22;5240;51.128;4.566;2023-08-07T15:28:05;24.80;99.90
10388;DHT22;5240;51.128;4.566;2023-08-07T15:30:33;23.80;99.90
10388;DHT22;5240;51.128;4.566;2023-08-07T15:33:00;23.60;99.90
10388;DHT22;5240;51.128;4.566;2023-08-07T15:35:29;23.50;99.90
10388;DHT22;5240;51.128;4.566;2023-08-07T15:37:57;24.10;99.90
10388;DHT22;5240;51.128;4.566;2023-08-07T15:40:25;24.20;99.90
10388;DHT22;5240;51.128;4.566;2023-08-07T15:42:53;23.80;99.90
10388;DHT22;5240;51.128;4.566;2023-08-07T15:45:20;23.20;99.90
10388;DHT22;5240;51.128;4.566;2023-08-07T15:47:49;22.90;99.90
10388;DHT22;5240;51.128;4.566;2023-08-07T15:50:15;22.70;99.90
10388;DHT22;5240;51.128;4.566;2023-08-07T15:52:42;22.90;99.90